sensor_id;sensor_type;location;lat;lon;timestamp;P1;durP1;ratioP1;P2;durP2;ratioP2
1685;SDS011;840;47.980;7.830;2022-08-21T00:00:16;4.53;;;1.57;;
1685;SDS011;840;47.980;7.830;2022-08-21T00:02:46;1.40;;;1.30;;
1685;SDS011;840;47.980;7.830;2022-08-21T00:05:14;5.27;;;1.40;;
1685;SDS011;840;47.980;7.830;2022-08-21T00:07:42;2.00;;;1.20;;
1685;SDS011;840;47.980;7.830;2022-08-21T00:10:09;2.60;;;1.40;;
1685;SDS011;840;47.980;7.830;2022-08-21T00:12:37;1.90;;;1.43;;
1685;SDS011;840;47.980;7.830;2022-08-21T00:15:08;1.70;;;1.60;;
1685;SDS011;840;47.980;7.830;2022-08-21T00:17:36;2.20;;;1.47;;
1685;SDS011;840;47.980;7.830;2022-08-21T00:20:03;1.23;;;1.20;;
1685;SDS011;840;47.980;7.830;2022-08-21T00:22:31;3.10;;;1.37;;
1685;SDS011;840;47.980;7.830;2022-08-21T00:24:58;1.80;;;1.43;;
1685;SDS011;840;47.980;7.830;2022-08-21T00:27:25;1.27;;;1.17;;
1685;SDS011;840;47.980;7.830;2022-08-21T00:29:52;1.47;;;1.37;;
1685;SDS011;840;47.980;7.830;2022-08-21T00:32:21;1.97;;;1.87;;
1685;SDS011;840;47.980;7.830;2022-08-21T00:34:49;1.47;;;1.07;;
1685;SDS011;840;47.980;7.830;2022-08-21T00:37:16;1.43;;;1.33;;
1685;SDS011;840;47.980;7.830;2022-08-21T00:39:43;1.60;;;1.50;;
1685;SDS011;840;47.980;7.830;2022-08-21T00:42:10;1.50;;;1.10;;
1685;SDS011;840;47.980;7.830;2022-08-21T00:44:39;1.70;;;1.60;;
1685;SDS011;840;47.980;7.830;2022-08-21T00:47:07;3.53;;;1.23;;
1685;SDS011;840;47.980;7.830;2022-08-21T00:49:35;1.97;;;1.20;;
1685;SDS011;840;47.980;7.830;2022-08-21T00:52:03;1.30;;;1.20;;
1685;SDS011;840;47.980;7.830;2022-08-21T00:54:31;1.83;;;1.73;;
1685;SDS011;840;47.980;7.830;2022-08-21T00:57:00;1.30;;;1.30;;
1685;SDS011;840;47.980;7.830;2022-08-21T00:59:30;4.07;;;2.00;;
1685;SDS011;840;47.980;7.830;2022-08-21T01:02:01;3.70;;;1.57;;
1685;SDS011;840;47.980;7.830;2022-08-21T01:04:28;3.13;;;1.63;;
1685;SDS011;840;47.980;7.830;2022-08-21T01:06:56;1.20;;;1.10;;
1685;SDS011;840;47.980;7.830;2022-08-21T01:09:23;3.93;;;1.33;;
1685;SDS011;840;47.980;7.830;2022-08-21T01:11:49;4.20;;;1.50;;
1685;SDS011;840;47.980;7.830;2022-08-21T01:14:16;1.50;;;1.40;;
1685;SDS011;840;47.980;7.830;2022-08-21T01:16:45;4.43;;;1.87;;
1685;SDS011;840;47.980;7.830;2022-08-21T01:19:14;2.77;;;1.73;;
1685;SDS011;840;47.980;7.830;2022-08-21T01:21:44;1.53;;;1.20;;
1685;SDS011;840;47.980;7.830;2022-08-21T01:24:11;2.20;;;1.50;;
1685;SDS011;840;47.980;7.830;2022-08-21T01:26:38;4.60;;;1.63;;
1685;SDS011;840;47.980;7.830;2022-08-21T01:29:07;2.27;;;1.50;;
1685;SDS011;840;47.980;7.830;2022-08-21T01:31:37;2.27;;;1.47;;
1685;SDS011;840;47.980;7.830;2022-08-21T01:34:05;1.83;;;1.20;;
1685;SDS011;840;47.980;7.830;2022-08-21T01:36:32;2.80;;;1.33;;
1685;SDS011;840;47.980;7.830;2022-08-21T01:39:00;1.00;;;1.00;;
1685;SDS011;840;47.980;7.830;2022-08-21T01:41:27;2.60;;;1.30;;
1685;SDS011;840;47.980;7.830;2022-08-21T01:43:53;2.20;;;1.20;;
1685;SDS011;840;47.980;7.830;2022-08-21T01:46:20;2.13;;;1.10;;
1685;SDS011;840;47.980;7.830;2022-08-21T01:48:47;8.00;;;1.50;;
1685;SDS011;840;47.980;7.830;2022-08-21T01:51:13;1.67;;;1.50;;
1685;SDS011;840;47.980;7.830;2022-08-21T01:53:40;3.87;;;1.30;;
1685;SDS011;840;47.980;7.830;2022-08-21T01:56:10;2.10;;;1.00;;
1685;SDS011;840;47.980;7.830;2022-08-21T01:58:39;1.60;;;1.50;;
1685;SDS011;840;47.980;7.830;2022-08-21T02:01:07;2.57;;;1.13;;
1685;SDS011;840;47.980;7.830;2022-08-21T02:03:35;1.20;;;1.20;;
1685;SDS011;840;47.980;7.830;2022-08-21T02:06:01;2.00;;;1.50;;
1685;SDS011;840;47.980;7.830;2022-08-21T02:08:29;1.83;;;1.30;;
1685;SDS011;840;47.980;7.830;2022-08-21T02:10:55;1.60;;;1.13;;
1685;SDS011;840;47.980;7.830;2022-08-21T02:13:23;2.50;;;1.40;;
1685;SDS011;840;47.980;7.830;2022-08-21T02:15:51;3.57;;;1.20;;
1685;SDS011;840;47.980;7.830;2022-08-21T02:18:18;1.50;;;1.40;;
1685;SDS011;840;47.980;7.830;2022-08-21T02:20:45;2.40;;;1.10;;
1685;SDS011;840;47.980;7.830;2022-08-21T02:23:13;1.70;;;1.60;;
1685;SDS011;840;47.980;7.830;2022-08-21T02:25:40;2.13;;;1.40;;
1685;SDS011;840;47.980;7.830;2022-08-21T02:28:09;2.10;;;1.37;;
1685;SDS011;840;47.980;7.830;2022-08-21T02:30:39;1.90;;;1.80;;
1685;SDS011;840;47.980;7.830;2022-08-21T02:33:08;1.20;;;1.20;;
1685;SDS011;840;47.980;7.830;2022-08-21T02:35:36;1.60;;;1.50;;
1685;SDS011;840;47.980;7.830;2022-08-21T02:38:05;1.57;;;1.47;;
1685;SDS011;840;47.980;7.830;2022-08-21T02:40:34;3.23;;;1.53;;
1685;SDS011;840;47.980;7.830;2022-08-21T02:43:04;2.70;;;1.47;;
1685;SDS011;840;47.980;7.830;2022-08-21T02:45:32;2.03;;;1.50;;
1685;SDS011;840;47.980;7.830;2022-08-21T02:48:02;1.90;;;1.80;;
1685;SDS011;840;47.980;7.830;2022-08-21T02:50:32;3.90;;;1.57;;
1685;SDS011;840;47.980;7.830;2022-08-21T02:53:02;2.20;;;2.00;;
1685;SDS011;840;47.980;7.830;2022-08-21T02:55:31;3.33;;;1.80;;
1685;SDS011;840;47.980;7.830;2022-08-21T02:57:59;2.83;;;1.30;;
1685;SDS011;840;47.980;7.830;2022-08-21T03:00:28;2.53;;;1.10;;
1685;SDS011;840;47.980;7.830;2022-08-21T03:02:56;2.40;;;1.50;;
1685;SDS011;840;47.980;7.830;2022-08-21T03:05:26;1.93;;;1.40;;
1685;SDS011;840;47.980;7.830;2022-08-21T03:07:56;4.10;;;1.80;;
1685;SDS011;840;47.980;7.830;2022-08-21T03:10:24;1.97;;;1.77;;
1685;SDS011;840;47.980;7.830;2022-08-21T03:12:51;1.23;;;1.13;;
1685;SDS011;840;47.980;7.830;2022-08-21T03:15:18;1.83;;;1.50;;
1685;SDS011;840;47.980;7.830;2022-08-21T03:17:46;2.10;;;1.80;;
1685;SDS011;840;47.980;7.830;2022-08-21T03:20:15;2.00;;;1.77;;
1685;SDS011;840;47.980;7.830;2022-08-21T03:22:44;2.40;;;1.60;;
1685;SDS011;840;47.980;7.830;2022-08-21T03:25:11;2.90;;;1.33;;
1685;SDS011;840;47.980;7.830;2022-08-21T03:27:38;2.63;;;1.20;;
1685;SDS011;840;47.980;7.830;2022-08-21T03:30:06;2.50;;;1.83;;
1685;SDS011;840;47.980;7.830;2022-08-21T03:32:34;2.40;;;2.10;;
1685;SDS011;840;47.980;7.830;2022-08-21T03:35:01;1.67;;;1.57;;
1685;SDS011;840;47.980;7.830;2022-08-21T03:37:29;2.10;;;1.40;;
1685;SDS011;840;47.980;7.830;2022-08-21T03:39:57;2.07;;;1.50;;
1685;SDS011;840;47.980;7.830;2022-08-21T03:42:24;2.13;;;1.90;;
1685;SDS011;840;47.980;7.830;2022-08-21T03:44:51;2.97;;;1.57;;
1685;SDS011;840;47.980;7.830;2022-08-21T03:47:18;3.67;;;1.93;;
1685;SDS011;840;47.980;7.830;2022-08-21T03:49:44;2.90;;;1.40;;
1685;SDS011;840;47.980;7.830;2022-08-21T03:52:11;1.90;;;1.40;;
1685;SDS011;840;47.980;7.830;2022-08-21T03:54:38;5.23;;;1.40;;
1685;SDS011;840;47.980;7.830;2022-08-21T03:57:07;2.83;;;2.10;;
1685;SDS011;840;47.980;7.830;2022-08-21T03:59:35;2.03;;;1.33;;
1685;SDS011;840;47.980;7.830;2022-08-21T04:02:04;2.57;;;2.17;;
1685;SDS011;840;47.980;7.830;2022-08-21T04:04:32;3.07;;;1.80;;
1685;SDS011;840;47.980;7.830;2022-08-21T04:07:00;6.70;;;1.77;;
1685;SDS011;840;47.980;7.830;2022-08-21T04:09:27;3.00;;;1.50;;
1685;SDS011;840;47.980;7.830;2022-08-21T04:11:55;3.03;;;1.50;;
1685;SDS011;840;47.980;7.830;2022-08-21T04:14:23;1.90;;;1.37;;
1685;SDS011;840;47.980;7.830;2022-08-21T04:16:50;4.13;;;2.00;;
1685;SDS011;840;47.980;7.830;2022-08-21T04:19:17;6.77;;;2.40;;
1685;SDS011;840;47.980;7.830;2022-08-21T04:21:44;3.07;;;1.90;;
1685;SDS011;840;47.980;7.830;2022-08-21T04:24:11;2.83;;;1.90;;
1685;SDS011;840;47.980;7.830;2022-08-21T04:26:38;1.70;;;1.60;;
1685;SDS011;840;47.980;7.830;2022-08-21T04:29:05;3.70;;;2.30;;
1685;SDS011;840;47.980;7.830;2022-08-21T04:31:34;4.53;;;2.53;;
1685;SDS011;840;47.980;7.830;2022-08-21T04:34:01;3.97;;;1.97;;
1685;SDS011;840;47.980;7.830;2022-08-21T04:36:29;2.70;;;1.90;;
1685;SDS011;840;47.980;7.830;2022-08-21T04:38:56;4.97;;;3.13;;
1685;SDS011;840;47.980;7.830;2022-08-21T04:41:23;6.27;;;1.67;;
1685;SDS011;840;47.980;7.830;2022-08-21T04:43:50;1.70;;;1.47;;
1685;SDS011;840;47.980;7.830;2022-08-21T04:46:16;1.93;;;1.57;;
1685;SDS011;840;47.980;7.830;2022-08-21T04:48:45;5.53;;;1.93;;
1685;SDS011;840;47.980;7.830;2022-08-21T04:51:13;3.30;;;1.53;;
1685;SDS011;840;47.980;7.830;2022-08-21T04:53:43;2.40;;;2.30;;
1685;SDS011;840;47.980;7.830;2022-08-21T04:56:13;2.63;;;1.93;;
1685;SDS011;840;47.980;7.830;2022-08-21T04:58:44;3.10;;;2.00;;
1685;SDS011;840;47.980;7.830;2022-08-21T05:01:12;2.73;;;2.53;;
1685;SDS011;840;47.980;7.830;2022-08-21T05:03:41;2.70;;;2.40;;
1685;SDS011;840;47.980;7.830;2022-08-21T05:06:11;4.10;;;2.73;;
1685;SDS011;840;47.980;7.830;2022-08-21T05:08:41;6.13;;;2.60;;
1685;SDS011;840;47.980;7.830;2022-08-21T05:11:11;2.80;;;1.60;;
1685;SDS011;840;47.980;7.830;2022-08-21T05:13:38;4.33;;;2.50;;
1685;SDS011;840;47.980;7.830;2022-08-21T05:16:06;3.07;;;2.27;;
1685;SDS011;840;47.980;7.830;2022-08-21T05:18:32;7.20;;;2.07;;
1685;SDS011;840;47.980;7.830;2022-08-21T05:20:59;3.70;;;2.20;;
1685;SDS011;840;47.980;7.830;2022-08-21T05:23:28;2.20;;;2.10;;
1685;SDS011;840;47.980;7.830;2022-08-21T05:25:54;2.60;;;2.40;;
1685;SDS011;840;47.980;7.830;2022-08-21T05:28:21;2.40;;;2.30;;
1685;SDS011;840;47.980;7.830;2022-08-21T05:30:48;2.00;;;1.80;;
1685;SDS011;840;47.980;7.830;2022-08-21T05:33:15;3.60;;;1.90;;
1685;SDS011;840;47.980;7.830;2022-08-21T05:35:42;1.70;;;1.60;;
1685;SDS011;840;47.980;7.830;2022-08-21T05:38:09;1.80;;;1.57;;
1685;SDS011;840;47.980;7.830;2022-08-21T05:40:37;1.87;;;1.37;;
1685;SDS011;840;47.980;7.830;2022-08-21T05:43:03;2.00;;;1.90;;
1685;SDS011;840;47.980;7.830;2022-08-21T05:45:32;4.63;;;1.67;;
1685;SDS011;840;47.980;7.830;2022-08-21T05:48:04;3.57;;;1.67;;
1685;SDS011;840;47.980;7.830;2022-08-21T05:50:31;2.80;;;2.00;;
1685;SDS011;840;47.980;7.830;2022-08-21T05:52:58;6.80;;;2.50;;
1685;SDS011;840;47.980;7.830;2022-08-21T05:55:25;2.20;;;1.97;;
1685;SDS011;840;47.980;7.830;2022-08-21T05:57:53;2.93;;;2.63;;
1685;SDS011;840;47.980;7.830;2022-08-21T06:00:20;6.60;;;2.13;;
1685;SDS011;840;47.980;7.830;2022-08-21T06:02:47;2.97;;;2.00;;
1685;SDS011;840;47.980;7.830;2022-08-21T06:05:14;5.23;;;1.87;;
1685;SDS011;840;47.980;7.830;2022-08-21T06:07:41;1.80;;;1.70;;
1685;SDS011;840;47.980;7.830;2022-08-21T06:10:08;5.30;;;2.37;;
1685;SDS011;840;47.980;7.830;2022-08-21T06:12:35;7.23;;;2.97;;
1685;SDS011;840;47.980;7.830;2022-08-21T06:15:09;2.60;;;2.40;;
1685;SDS011;840;47.980;7.830;2022-08-21T06:17:36;4.73;;;3.20;;
1685;SDS011;840;47.980;7.830;2022-08-21T06:20:03;4.13;;;2.03;;
1685;SDS011;840;47.980;7.830;2022-08-21T06:22:31;7.00;;;2.63;;
1685;SDS011;840;47.980;7.830;2022-08-21T06:24:58;2.33;;;1.80;;
1685;SDS011;840;47.980;7.830;2022-08-21T06:27:24;4.60;;;1.80;;
1685;SDS011;840;47.980;7.830;2022-08-21T06:29:51;4.20;;;3.80;;
1685;SDS011;840;47.980;7.830;2022-08-21T06:32:19;1.93;;;1.83;;
1685;SDS011;840;47.980;7.830;2022-08-21T06:34:46;2.10;;;1.90;;
1685;SDS011;840;47.980;7.830;2022-08-21T06:37:12;1.70;;;1.60;;
1685;SDS011;840;47.980;7.830;2022-08-21T06:39:39;3.47;;;1.87;;
1685;SDS011;840;47.980;7.830;2022-08-21T06:42:06;2.33;;;1.70;;
1685;SDS011;840;47.980;7.830;2022-08-21T06:44:38;1.97;;;1.87;;
1685;SDS011;840;47.980;7.830;2022-08-21T06:47:05;2.33;;;1.83;;
1685;SDS011;840;47.980;7.830;2022-08-21T06:49:34;2.10;;;1.90;;
1685;SDS011;840;47.980;7.830;2022-08-21T06:52:01;2.70;;;2.40;;
1685;SDS011;840;47.980;7.830;2022-08-21T06:54:29;2.37;;;2.17;;
1685;SDS011;840;47.980;7.830;2022-08-21T06:56:56;2.93;;;2.23;;
1685;SDS011;840;47.980;7.830;2022-08-21T06:59:22;4.30;;;2.20;;
1685;SDS011;840;47.980;7.830;2022-08-21T07:01:49;2.40;;;1.90;;
1685;SDS011;840;47.980;7.830;2022-08-21T07:04:16;2.70;;;2.50;;
1685;SDS011;840;47.980;7.830;2022-08-21T07:06:44;3.87;;;2.20;;
1685;SDS011;840;47.980;7.830;2022-08-21T07:09:11;3.87;;;2.60;;
1685;SDS011;840;47.980;7.830;2022-08-21T07:11:38;4.80;;;3.70;;
1685;SDS011;840;47.980;7.830;2022-08-21T07:14:05;2.87;;;2.60;;
1685;SDS011;840;47.980;7.830;2022-08-21T07:16:31;3.33;;;3.03;;
1685;SDS011;840;47.980;7.830;2022-08-21T07:18:58;4.47;;;2.50;;
1685;SDS011;840;47.980;7.830;2022-08-21T07:21:25;3.57;;;3.17;;
1685;SDS011;840;47.980;7.830;2022-08-21T07:23:53;4.60;;;2.87;;
1685;SDS011;840;47.980;7.830;2022-08-21T07:26:21;2.73;;;2.37;;
1685;SDS011;840;47.980;7.830;2022-08-21T07:28:49;3.10;;;2.80;;
1685;SDS011;840;47.980;7.830;2022-08-21T07:31:16;4.90;;;3.37;;
1685;SDS011;840;47.980;7.830;2022-08-21T07:33:45;4.10;;;2.90;;
1685;SDS011;840;47.980;7.830;2022-08-21T07:36:12;3.20;;;2.90;;
1685;SDS011;840;47.980;7.830;2022-08-21T07:38:39;3.43;;;2.80;;
1685;SDS011;840;47.980;7.830;2022-08-21T07:41:09;6.33;;;2.90;;
1685;SDS011;840;47.980;7.830;2022-08-21T07:43:39;4.13;;;2.43;;
1685;SDS011;840;47.980;7.830;2022-08-21T07:46:06;3.50;;;2.70;;
1685;SDS011;840;47.980;7.830;2022-08-21T07:48:33;3.87;;;3.03;;
1685;SDS011;840;47.980;7.830;2022-08-21T07:51:02;3.70;;;2.30;;
1685;SDS011;840;47.980;7.830;2022-08-21T07:53:33;5.83;;;3.00;;
1685;SDS011;840;47.980;7.830;2022-08-21T07:56:00;5.03;;;2.87;;
1685;SDS011;840;47.980;7.830;2022-08-21T07:58:29;2.83;;;2.53;;
1685;SDS011;840;47.980;7.830;2022-08-21T08:00:56;3.67;;;2.80;;
1685;SDS011;840;47.980;7.830;2022-08-21T08:03:24;3.30;;;2.50;;
1685;SDS011;840;47.980;7.830;2022-08-21T08:05:50;2.80;;;2.37;;
1685;SDS011;840;47.980;7.830;2022-08-21T08:08:17;2.83;;;2.53;;
1685;SDS011;840;47.980;7.830;2022-08-21T08:10:44;3.73;;;2.87;;
1685;SDS011;840;47.980;7.830;2022-08-21T08:13:11;2.63;;;2.43;;
1685;SDS011;840;47.980;7.830;2022-08-21T08:15:39;3.20;;;2.37;;
1685;SDS011;840;47.980;7.830;2022-08-21T08:18:06;2.80;;;2.47;;
1685;SDS011;840;47.980;7.830;2022-08-21T08:20:33;3.50;;;2.70;;
1685;SDS011;840;47.980;7.830;2022-08-21T08:23:00;8.97;;;4.20;;
1685;SDS011;840;47.980;7.830;2022-08-21T08:25:27;5.07;;;2.37;;
1685;SDS011;840;47.980;7.830;2022-08-21T08:27:54;2.63;;;2.07;;
1685;SDS011;840;47.980;7.830;2022-08-21T08:30:21;4.93;;;2.10;;
1685;SDS011;840;47.980;7.830;2022-08-21T08:32:50;4.20;;;2.30;;
1685;SDS011;840;47.980;7.830;2022-08-21T08:35:17;2.93;;;2.60;;
1685;SDS011;840;47.980;7.830;2022-08-21T08:37:44;4.27;;;3.10;;
1685;SDS011;840;47.980;7.830;2022-08-21T08:40:12;4.27;;;3.03;;
1685;SDS011;840;47.980;7.830;2022-08-21T08:42:44;3.70;;;3.07;;
1685;SDS011;840;47.980;7.830;2022-08-21T08:45:15;4.20;;;2.57;;
1685;SDS011;840;47.980;7.830;2022-08-21T08:47:47;4.70;;;2.90;;
1685;SDS011;840;47.980;7.830;2022-08-21T08:50:23;4.47;;;1.90;;
1685;SDS011;840;47.980;7.830;2022-08-21T08:52:54;5.07;;;2.03;;
1685;SDS011;840;47.980;7.830;2022-08-21T08:55:28;3.10;;;1.97;;
1685;SDS011;840;47.980;7.830;2022-08-21T08:57:58;7.80;;;2.43;;
1685;SDS011;840;47.980;7.830;2022-08-21T09:00:27;4.33;;;2.67;;
1685;SDS011;840;47.980;7.830;2022-08-21T09:02:58;2.47;;;2.00;;
1685;SDS011;840;47.980;7.830;2022-08-21T09:05:29;7.07;;;2.57;;
1685;SDS011;840;47.980;7.830;2022-08-21T09:08:27;4.70;;;2.33;;
1685;SDS011;840;47.980;7.830;2022-08-21T09:11:09;3.13;;;2.50;;
1685;SDS011;840;47.980;7.830;2022-08-21T09:13:43;6.30;;;3.10;;
1685;SDS011;840;47.980;7.830;2022-08-21T09:16:21;5.60;;;3.10;;
1685;SDS011;840;47.980;7.830;2022-08-21T09:19:00;6.60;;;2.70;;
1685;SDS011;840;47.980;7.830;2022-08-21T09:21:35;2.80;;;2.33;;
1685;SDS011;840;47.980;7.830;2022-08-21T09:24:14;2.87;;;2.10;;
1685;SDS011;840;47.980;7.830;2022-08-21T09:26:54;3.53;;;2.83;;
1685;SDS011;840;47.980;7.830;2022-08-21T09:29:30;6.30;;;2.90;;
1685;SDS011;840;47.980;7.830;2022-08-21T09:31:59;6.53;;;2.73;;
1685;SDS011;840;47.980;7.830;2022-08-21T09:34:28;8.67;;;3.30;;
1685;SDS011;840;47.980;7.830;2022-08-21T09:37:15;5.33;;;2.27;;
1685;SDS011;840;47.980;7.830;2022-08-21T09:39:43;6.00;;;2.30;;
1685;SDS011;840;47.980;7.830;2022-08-21T09:42:10;9.60;;;2.87;;
1685;SDS011;840;47.980;7.830;2022-08-21T09:44:39;3.00;;;2.13;;
1685;SDS011;840;47.980;7.830;2022-08-21T09:47:09;4.87;;;2.80;;
1685;SDS011;840;47.980;7.830;2022-08-21T09:49:39;9.43;;;4.20;;
1685;SDS011;840;47.980;7.830;2022-08-21T09:52:14;2.53;;;2.40;;
1685;SDS011;840;47.980;7.830;2022-08-21T09:54:43;5.53;;;3.07;;
1685;SDS011;840;47.980;7.830;2022-08-21T09:57:12;4.60;;;2.67;;
1685;SDS011;840;47.980;7.830;2022-08-21T10:00:08;3.27;;;2.67;;
1685;SDS011;840;47.980;7.830;2022-08-21T10:02:36;5.60;;;3.27;;
1685;SDS011;840;47.980;7.830;2022-08-21T10:05:07;3.47;;;2.50;;
1685;SDS011;840;47.980;7.830;2022-08-21T10:07:40;4.20;;;2.67;;
1685;SDS011;840;47.980;7.830;2022-08-21T10:10:08;8.87;;;3.00;;
1685;SDS011;840;47.980;7.830;2022-08-21T10:12:42;3.90;;;2.47;;
1685;SDS011;840;47.980;7.830;2022-08-21T10:15:18;3.07;;;2.77;;
1685;SDS011;840;47.980;7.830;2022-08-21T10:17:52;6.63;;;3.27;;
1685;SDS011;840;47.980;7.830;2022-08-21T10:20:32;5.27;;;3.30;;
1685;SDS011;840;47.980;7.830;2022-08-21T10:23:07;2.80;;;2.23;;
1685;SDS011;840;47.980;7.830;2022-08-21T10:25:55;4.27;;;2.27;;
1685;SDS011;840;47.980;7.830;2022-08-21T10:28:29;5.37;;;2.20;;
1685;SDS011;840;47.980;7.830;2022-08-21T10:31:06;7.20;;;2.20;;
1685;SDS011;840;47.980;7.830;2022-08-21T10:33:41;5.50;;;2.27;;
1685;SDS011;840;47.980;7.830;2022-08-21T10:36:14;6.97;;;2.10;;
1685;SDS011;840;47.980;7.830;2022-08-21T10:39:03;2.87;;;2.13;;
1685;SDS011;840;47.980;7.830;2022-08-21T10:41:45;3.63;;;2.80;;
1685;SDS011;840;47.980;7.830;2022-08-21T10:44:28;2.10;;;1.90;;
1685;SDS011;840;47.980;7.830;2022-08-21T10:47:00;2.43;;;2.00;;
1685;SDS011;840;47.980;7.830;2022-08-21T10:49:33;8.10;;;2.70;;
1685;SDS011;840;47.980;7.830;2022-08-21T10:55:11;3.10;;;1.97;;
1685;SDS011;840;47.980;7.830;2022-08-21T10:57:42;4.00;;;2.10;;
1685;SDS011;840;47.980;7.830;2022-08-21T11:00:14;6.70;;;2.10;;
1685;SDS011;840;47.980;7.830;2022-08-21T11:02:44;3.20;;;2.53;;
1685;SDS011;840;47.980;7.830;2022-08-21T11:05:17;3.47;;;2.03;;
1685;SDS011;840;47.980;7.830;2022-08-21T11:07:53;5.17;;;1.73;;
1685;SDS011;840;47.980;7.830;2022-08-21T11:10:23;5.47;;;1.73;;
1685;SDS011;840;47.980;7.830;2022-08-21T11:12:52;1.70;;;1.50;;
1685;SDS011;840;47.980;7.830;2022-08-21T11:15:27;1.30;;;1.03;;
1685;SDS011;840;47.980;7.830;2022-08-21T11:18:01;1.77;;;1.27;;
1685;SDS011;840;47.980;7.830;2022-08-21T11:20:43;2.10;;;1.47;;
1685;SDS011;840;47.980;7.830;2022-08-21T11:23:17;5.10;;;1.83;;
1685;SDS011;840;47.980;7.830;2022-08-21T11:25:49;2.33;;;2.00;;
1685;SDS011;840;47.980;7.830;2022-08-21T11:28:21;2.63;;;1.97;;
1685;SDS011;840;47.980;7.830;2022-08-21T11:30:53;1.97;;;1.67;;
1685;SDS011;840;47.980;7.830;2022-08-21T11:33:30;3.20;;;1.90;;
1685;SDS011;840;47.980;7.830;2022-08-21T11:36:10;4.00;;;1.70;;
1685;SDS011;840;47.980;7.830;2022-08-21T11:38:44;2.10;;;1.57;;
1685;SDS011;840;47.980;7.830;2022-08-21T11:41:19;1.97;;;1.50;;
1685;SDS011;840;47.980;7.830;2022-08-21T11:43:55;2.73;;;1.93;;
1685;SDS011;840;47.980;7.830;2022-08-21T11:46:31;3.40;;;1.53;;
1685;SDS011;840;47.980;7.830;2022-08-21T11:49:13;4.60;;;2.03;;
1685;SDS011;840;47.980;7.830;2022-08-21T11:51:52;3.27;;;1.50;;
1685;SDS011;840;47.980;7.830;2022-08-21T11:54:26;1.87;;;1.23;;
1685;SDS011;840;47.980;7.830;2022-08-21T11:56:59;1.70;;;1.60;;
1685;SDS011;840;47.980;7.830;2022-08-21T11:59:32;3.80;;;1.60;;
1685;SDS011;840;47.980;7.830;2022-08-21T12:02:02;2.60;;;1.47;;
1685;SDS011;840;47.980;7.830;2022-08-21T12:04:42;2.13;;;1.33;;
1685;SDS011;840;47.980;7.830;2022-08-21T12:07:12;2.83;;;1.57;;
1685;SDS011;840;47.980;7.830;2022-08-21T12:09:50;1.87;;;1.43;;
1685;SDS011;840;47.980;7.830;2022-08-21T12:12:23;1.90;;;1.10;;
1685;SDS011;840;47.980;7.830;2022-08-21T12:15:04;4.97;;;1.77;;
1685;SDS011;840;47.980;7.830;2022-08-21T12:17:50;2.10;;;1.80;;
1685;SDS011;840;47.980;7.830;2022-08-21T12:20:22;2.63;;;1.70;;
1685;SDS011;840;47.980;7.830;2022-08-21T12:23:02;3.07;;;1.60;;
1685;SDS011;840;47.980;7.830;2022-08-21T12:25:37;2.50;;;1.80;;
1685;SDS011;840;47.980;7.830;2022-08-21T12:28:07;1.70;;;1.60;;
1685;SDS011;840;47.980;7.830;2022-08-21T12:30:36;3.13;;;2.50;;
1685;SDS011;840;47.980;7.830;2022-08-21T12:33:06;4.20;;;2.20;;
1685;SDS011;840;47.980;7.830;2022-08-21T12:35:45;2.17;;;1.43;;
1685;SDS011;840;47.980;7.830;2022-08-21T12:38:15;3.30;;;1.70;;
1685;SDS011;840;47.980;7.830;2022-08-21T12:40:47;6.37;;;2.20;;
1685;SDS011;840;47.980;7.830;2022-08-21T12:43:18;1.40;;;1.10;;
1685;SDS011;840;47.980;7.830;2022-08-21T12:45:54;2.97;;;1.63;;
1685;SDS011;840;47.980;7.830;2022-08-21T12:48:23;2.70;;;1.57;;
1685;SDS011;840;47.980;7.830;2022-08-21T12:50:53;4.73;;;1.73;;
1685;SDS011;840;47.980;7.830;2022-08-21T12:53:25;3.13;;;1.80;;
1685;SDS011;840;47.980;7.830;2022-08-21T12:55:57;1.87;;;1.60;;
1685;SDS011;840;47.980;7.830;2022-08-21T12:58:28;2.73;;;2.13;;
1685;SDS011;840;47.980;7.830;2022-08-21T13:00:56;1.97;;;1.77;;
1685;SDS011;840;47.980;7.830;2022-08-21T13:03:27;2.33;;;1.40;;
1685;SDS011;840;47.980;7.830;2022-08-21T13:05:55;4.03;;;2.00;;
1685;SDS011;840;47.980;7.830;2022-08-21T13:08:27;2.17;;;1.77;;
1685;SDS011;840;47.980;7.830;2022-08-21T13:10:58;2.60;;;1.57;;
1685;SDS011;840;47.980;7.830;2022-08-21T13:13:27;1.33;;;1.20;;
1685;SDS011;840;47.980;7.830;2022-08-21T13:15:58;6.07;;;1.57;;
1685;SDS011;840;47.980;7.830;2022-08-21T13:18:31;2.90;;;1.93;;
1685;SDS011;840;47.980;7.830;2022-08-21T13:21:04;2.43;;;2.03;;
1685;SDS011;840;47.980;7.830;2022-08-21T13:23:33;2.00;;;1.77;;
1685;SDS011;840;47.980;7.830;2022-08-21T13:26:02;2.87;;;1.87;;
1685;SDS011;840;47.980;7.830;2022-08-21T13:28:38;2.53;;;1.47;;
1685;SDS011;840;47.980;7.830;2022-08-21T13:31:06;1.40;;;1.20;;
1685;SDS011;840;47.980;7.830;2022-08-21T13:33:35;5.90;;;1.90;;
1685;SDS011;840;47.980;7.830;2022-08-21T13:36:04;2.13;;;1.40;;
1685;SDS011;840;47.980;7.830;2022-08-21T13:38:36;2.60;;;1.63;;
1685;SDS011;840;47.980;7.830;2022-08-21T13:41:08;1.83;;;1.70;;
1685;SDS011;840;47.980;7.830;2022-08-21T13:43:49;2.87;;;1.30;;
1685;SDS011;840;47.980;7.830;2022-08-21T13:46:21;3.13;;;1.73;;
1685;SDS011;840;47.980;7.830;2022-08-21T13:48:50;3.60;;;2.20;;
1685;SDS011;840;47.980;7.830;2022-08-21T13:51:17;5.70;;;2.17;;
1685;SDS011;840;47.980;7.830;2022-08-21T13:53:46;2.70;;;1.23;;
1685;SDS011;840;47.980;7.830;2022-08-21T13:56:26;1.70;;;1.43;;
1685;SDS011;840;47.980;7.830;2022-08-21T13:58:55;2.30;;;1.20;;
1685;SDS011;840;47.980;7.830;2022-08-21T14:01:25;1.63;;;1.27;;
1685;SDS011;840;47.980;7.830;2022-08-21T14:03:57;4.33;;;2.00;;
1685;SDS011;840;47.980;7.830;2022-08-21T14:06:32;1.97;;;1.60;;
1685;SDS011;840;47.980;7.830;2022-08-21T14:09:03;4.00;;;1.40;;
1685;SDS011;840;47.980;7.830;2022-08-21T14:11:36;3.70;;;1.97;;
1685;SDS011;840;47.980;7.830;2022-08-21T14:14:05;2.57;;;1.33;;
1685;SDS011;840;47.980;7.830;2022-08-21T14:16:42;2.97;;;1.73;;
1685;SDS011;840;47.980;7.830;2022-08-21T14:19:12;4.17;;;1.80;;
1685;SDS011;840;47.980;7.830;2022-08-21T14:21:45;2.70;;;1.57;;
1685;SDS011;840;47.980;7.830;2022-08-21T14:24:12;10.10;;;2.00;;
1685;SDS011;840;47.980;7.830;2022-08-21T14:26:52;2.17;;;1.90;;
1685;SDS011;840;47.980;7.830;2022-08-21T14:29:21;1.30;;;1.20;;
1685;SDS011;840;47.980;7.830;2022-08-21T14:31:51;2.23;;;1.53;;
1685;SDS011;840;47.980;7.830;2022-08-21T14:34:20;2.97;;;1.50;;
1685;SDS011;840;47.980;7.830;2022-08-21T14:36:48;1.87;;;1.40;;
1685;SDS011;840;47.980;7.830;2022-08-21T14:39:15;1.60;;;1.50;;
1685;SDS011;840;47.980;7.830;2022-08-21T14:41:42;1.90;;;1.40;;
1685;SDS011;840;47.980;7.830;2022-08-21T14:44:14;1.83;;;1.50;;
1685;SDS011;840;47.980;7.830;2022-08-21T14:46:43;5.27;;;1.37;;
1685;SDS011;840;47.980;7.830;2022-08-21T14:49:10;2.10;;;1.17;;
1685;SDS011;840;47.980;7.830;2022-08-21T14:51:39;2.63;;;1.73;;
1685;SDS011;840;47.980;7.830;2022-08-21T14:54:06;2.30;;;1.17;;
1685;SDS011;840;47.980;7.830;2022-08-21T14:56:33;2.90;;;1.77;;
1685;SDS011;840;47.980;7.830;2022-08-21T14:59:07;1.57;;;1.40;;
1685;SDS011;840;47.980;7.830;2022-08-21T15:01:36;4.83;;;1.27;;
1685;SDS011;840;47.980;7.830;2022-08-21T15:04:04;1.73;;;1.50;;
1685;SDS011;840;47.980;7.830;2022-08-21T15:06:31;1.50;;;1.37;;
1685;SDS011;840;47.980;7.830;2022-08-21T15:08:58;3.23;;;1.47;;
1685;SDS011;840;47.980;7.830;2022-08-21T15:11:27;6.30;;;3.03;;
1685;SDS011;840;47.980;7.830;2022-08-21T15:13:55;8.57;;;1.47;;
1685;SDS011;840;47.980;7.830;2022-08-21T15:16:24;1.67;;;1.57;;
1685;SDS011;840;47.980;7.830;2022-08-21T15:18:56;1.47;;;1.37;;
1685;SDS011;840;47.980;7.830;2022-08-21T15:21:23;1.50;;;1.30;;
1685;SDS011;840;47.980;7.830;2022-08-21T15:23:50;2.20;;;1.37;;
1685;SDS011;840;47.980;7.830;2022-08-21T15:26:17;1.30;;;1.20;;
1685;SDS011;840;47.980;7.830;2022-08-21T15:28:45;2.00;;;1.83;;
1685;SDS011;840;47.980;7.830;2022-08-21T15:31:11;2.17;;;1.00;;
1685;SDS011;840;47.980;7.830;2022-08-21T15:33:38;1.80;;;1.10;;
1685;SDS011;840;47.980;7.830;2022-08-21T15:36:07;2.07;;;1.30;;
1685;SDS011;840;47.980;7.830;2022-08-21T15:38:33;1.30;;;1.20;;
1685;SDS011;840;47.980;7.830;2022-08-21T15:41:01;2.90;;;1.50;;
1685;SDS011;840;47.980;7.830;2022-08-21T15:43:28;2.10;;;1.33;;
1685;SDS011;840;47.980;7.830;2022-08-21T15:45:58;1.63;;;1.40;;
1685;SDS011;840;47.980;7.830;2022-08-21T15:48:26;2.27;;;1.30;;